• Join FlightAware (Why Join?)
  • Login
  • US Flag 
03:37AM EDT


 

Airport Tracker/Info


-or-


 

Live Flight TrackerFlight Track Log ✈ AWE3921 ✈ 02-May-2013 ✈ KROC - KDCA

Flight Track Log - Related Links

Times and Time Zones

All times are in EDT time to prevent confusion due to time zone crossing. See the AWE3921 flight status page for this flight to view local times or setup timezone preferences in your user account.

Time Position Orientation Groundspeed Altitude Reporting Facility
EDT Latitude Longitude Course Direction KTS MPH feet Rate Location/Type
12:02PM 43.0953 -77.7003 192° South 161 185 1,300  Level Cleveland Center
12:03PM 43.0481 -77.7222 199° South 225 259 3,500 2,040 Climbing Cleveland Center
12:04PM 42.8456 -77.7167 180° South  Level FlightAware Approximate
12:04PM 42.9836 -77.7281 184° South 237 273 5,500  Level Cleveland Center
12:05PM 42.7555 -77.7389 192° South  Level FlightAware Approximate
12:05PM 42.9106 -77.7314 182° South 248 285 8,300  Level Cleveland Center
12:06PM 42.6657 -77.7653 192° South  Level FlightAware Approximate
12:06PM 42.8317 -77.7350 182° South 269 310 11,200  Level Cleveland Center
12:07PM 42.5759 -77.7922 192° South  Level FlightAware Approximate
12:07PM 42.7528 -77.7583 192° South 287 330 13,500  Level Cleveland Center
12:08PM 42.6658 -77.7792 190° South 299 344 15,500 2,040 Climbing Cleveland Center
12:09PM 42.5831 -77.8028 192° South 311 358 17,600 1,440 Climbing Cleveland Center
12:10PM 42.4961 -77.8233 190° South 344 396 18,400 1,080 Climbing Cleveland Center
12:11PM 42.4047 -77.8469 191° South 344 396 19,800 1,320 Climbing Cleveland Center
12:12PM 42.3075 -77.8708 190° South 350 403 21,100 1,200 Climbing Cleveland Center
12:13PM 42.2100 -77.8947 190° South 355 409 22,200 900 Climbing Cleveland Center
12:14PM 42.1086 -77.9214 191° South 367 422 23,000 360 Climbing Cleveland Center
12:15PM 42.0069 -77.9481 191° South 372 428 23,000  Level Cleveland Center
12:16PM 41.9033 -77.9744 191° South 372 428 23,000  Level Cleveland Center
12:17PM 41.7994 -77.9956 189° South 378 435 23,000  Level Cleveland Center
12:18PM 41.7000 -78.0217 191° South 373 429 23,000  Level Cleveland Center
12:19PM 41.5983 -78.0481 191° South 373 429 23,000  Level Cleveland Center
12:20PM 41.4842 -78.0767 191° South 370 426 23,000  Level New York Center
12:21PM 41.3825 -78.1014 190° South 377 434 23,000  Level New York Center
12:22PM 41.2811 -78.1264 190° South 377 434 23,000  Level New York Center
12:23PM 41.1792 -78.1236 179° South 377 434 23,000  Level New York Center
12:24PM 41.0819 -78.0744 159° South 364 419 23,000  Level New York Center
12:25PM 40.9847 -78.0283 160° South 369 425 23,000  Level New York Center
12:26PM 40.8947 -77.9667 153° Southeast 369 425 23,000  Level New York Center
12:27PM 40.8167 -77.8789 140° Southeast 369 425 23,000  Level New York Center
12:28PM 40.7386 -77.7911 140° Southeast 369 425 23,000 -300 Level New York Center
12:29PM 40.6583 -77.7008 140° Southeast 375 432 22,400 -1,620 Descending New York Center
12:30PM 40.5803 -77.6111 139° Southeast 381 438 19,800 -2,220 Descending New York Center
12:31PM 40.4958 -77.5208 141° Southeast 368 423 18,000 -900 Descending New York Center
12:32PM 40.4194 -77.4697 153° Southeast 347 399 18,000  Level New York Center
12:33PM 40.3250 -77.4061 153° Southeast 342 394 18,000  Level New York Center
12:34PM 40.2486 -77.3553 153° Southeast 342 394 18,000  Level New York Center
12:35PM 40.1481 -77.2886 153° Southeast 355 409 18,000  Level New York Center
12:36PM 40.0675 -77.2378 154° Southeast 367 422 18,000  Level New York Center
12:37PM 39.9631 -77.1683 153° Southeast 372 428 18,000  Level New York Center
12:38PM 39.8764 -77.1117 153° Southeast 377 434 18,000  Level New York Center
12:39PM 39.7756 -77.0458 153° Southeast 377 434 18,000  Level New York Center
12:40PM 39.6931 -76.9925 154° Southeast 372 428 18,000 -840 Level New York Center
12:41PM 39.5833 -76.9167 152° Southeast 378 435 16,300 -2,580 Descending Potomac TRACON
12:42PM 39.4833 -76.8667 159° South 379 436 12,600 -2,160 Descending Potomac TRACON
12:43PM 39.4000 -76.8000 148° Southeast 343 395 12,000 -720 Descending Potomac TRACON
12:44PM 39.3167 -76.7500 155° Southeast 337 388 11,300 -900 Descending Potomac TRACON
12:45PM 39.2167 -76.7000 159° South 331 381 10,300 -660 Descending Potomac TRACON
12:46PM 39.1500 -76.7000 180° South 300 345 10,000 -240 Descending Potomac TRACON
12:47PM 39.0833 -76.7667 218° Southwest 299 344 9,900 -900 Descending Potomac TRACON
12:48PM 39.0167 -76.8333 218° Southwest 279 321 8,200 -1,440 Descending Potomac TRACON
12:49PM 38.9667 -76.9000 226° Southwest 275 316 6,900 -1,140 Descending Potomac TRACON
12:50PM 38.9000 -76.9333 201° Southwest 262 302 6,000 -480 Descending Potomac TRACON
12:51PM 38.8500 -76.9500 195° South 234 269 6,000 -300 Level Potomac TRACON
12:52PM 38.7833 -76.9500 180° South 228 262 5,400 -960 Descending Potomac TRACON
12:53PM 38.7167 -76.9333 169° South 221 254 4,100 -720 Descending Potomac TRACON
12:54PM 38.6667 -76.9333 180° South 197 227 4,100 -120 Level Potomac TRACON
12:55PM 38.6333 -76.9667 218° Southwest 219 252 3,900 -540 Descending Potomac TRACON
12:57PM 38.7000 -77.0333 322° Northwest 172 198 2,500 -720 Descending Potomac TRACON